Portada
METAR-TAF:

METAR-TAF

Aeroports :

Txeboksari, Rússia

latitud: 56-05-24N, longitud: 047-20-50E, altitud: 171 m

Observació

L'informe es va fer fa 21 minuts, a les 22:30 UTC
Vent 16 kt del Oest/Nord-Oest
Temperatura -3°C
Humitat 100%
Pressió 995 hPa
Visibilitat 10 km o més
Cel ennuvolat a una alçada de 1000 ft, Cumulonimbus.

METAR: UWKS 252230Z 30008MPS 9999 BKN010CB M03/M03 Q0995 R24/690336 NOSIG RMK QFE732

Hora: 01:51 (22:51 UTC)

Pronòstic

L'informe es va fer fa 2 hores i 56 minuts, a les 19:55 UTC
Pronòstic vàlid del 25 a les 21 UTC al 26 a les 06 UTC
Vent 10 kt del Oest/Nord-Oest amb ràfegues de 23 kt
Visibilitat: 6000 m
Cel ennuvolat a una alçada de 1100 ft, Cumulonimbus.
xàfecs de neu
Temporalment
l' 25 a les 21 UTC al 25 a les 23 UTC
Visibilitat: 2000 m
Cel cobert a una alçada de 600 ft, Cumulonimbus.
xàfecs de neu

TAF: UWKS 251955Z 2521/2606 29005G12MPS 6000 -SHSN BKN011CB TXM01/2521Z TNM04/2603Z TEMPO 2521/2523 2000 SHSN OVC006CB

Observacions i pronòstics meteorològics de més de 4000 aeroports (METAR i TAF).

Les estacions disponibles són els punts grocs i vermells al mapa.

Posi el ratolí al punt desitjat per veure el nom de l'estació.

Feu clic per veure les observacions i els pronòstics meteorològics.

Per canviar el mapa: feu clic els botons verds amb una creu de color negre per apropar; al botó verd amb un guió per allunyar la imatge; o en les fletxes verdes per a mapes adjacents.


METAR-TAF: